sensor_id;sensor_type;location;lat;lon;timestamp;temperature;humidity
52034;DHT22;38045;52.988;6.536;2022-11-20T00:01:49;-1.00;99.90
52034;DHT22;38045;52.988;6.536;2022-11-20T00:04:15;-0.90;99.90
52034;DHT22;38045;52.988;6.536;2022-11-20T00:06:40;-0.90;99.90
52034;DHT22;38045;52.988;6.536;2022-11-20T00:09:06;-0.90;99.90
52034;DHT22;38045;52.988;6.536;2022-11-20T00:11:32;-0.80;99.90
52034;DHT22;38045;52.988;6.536;2022-11-20T00:14:00;-0.80;99.90
52034;DHT22;38045;52.988;6.536;2022-11-20T00:16:27;-0.70;99.90
52034;DHT22;38045;52.988;6.536;2022-11-20T00:18:54;-0.70;99.90
52034;DHT22;38045;52.988;6.536;2022-11-20T00:21:27;-0.70;99.90
52034;DHT22;38045;52.988;6.536;2022-11-20T00:23:55;-0.70;99.90
52034;DHT22;38045;52.988;6.536;2022-11-20T00:26:23;-0.70;99.90
52034;DHT22;38045;52.988;6.536;2022-11-20T00:28:57;-0.70;99.90
52034;DHT22;38045;52.988;6.536;2022-11-20T00:31:23;-0.70;99.90
52034;DHT22;38045;52.988;6.536;2022-11-20T00:33:48;-0.70;99.90
52034;DHT22;38045;52.988;6.536;2022-11-20T00:36:20;-0.70;99.90
52034;DHT22;38045;52.988;6.536;2022-11-20T00:38:46;-0.70;99.90
52034;DHT22;38045;52.988;6.536;2022-11-20T00:41:15;-0.60;99.90
52034;DHT22;38045;52.988;6.536;2022-11-20T00:43:41;-0.70;99.90
52034;DHT22;38045;52.988;6.536;2022-11-20T00:48:34;-0.60;99.90
52034;DHT22;38045;52.988;6.536;2022-11-20T00:51:00;-0.60;99.90
52034;DHT22;38045;52.988;6.536;2022-11-20T00:53:26;-0.60;99.90
52034;DHT22;38045;52.988;6.536;2022-11-20T00:55:55;-0.60;99.90
52034;DHT22;38045;52.988;6.536;2022-11-20T00:58:22;-0.60;99.90
52034;DHT22;38045;52.988;6.536;2022-11-20T01:00:48;-0.50;99.90
52034;DHT22;38045;52.988;6.536;2022-11-20T01:03:16;-0.50;99.90
52034;DHT22;38045;52.988;6.536;2022-11-20T01:05:42;-0.50;99.90
52034;DHT22;38045;52.988;6.536;2022-11-20T01:08:07;-0.50;99.90
52034;DHT22;38045;52.988;6.536;2022-11-20T01:10:33;-0.40;99.90
52034;DHT22;38045;52.988;6.536;2022-11-20T01:12:59;-0.40;99.90
52034;DHT22;38045;52.988;6.536;2022-11-20T01:15:43;-0.40;99.90
52034;DHT22;38045;52.988;6.536;2022-11-20T01:18:08;-0.40;99.90
52034;DHT22;38045;52.988;6.536;2022-11-20T01:20:35;-0.40;99.90
52034;DHT22;38045;52.988;6.536;2022-11-20T01:23:02;-0.40;99.90
52034;DHT22;38045;52.988;6.536;2022-11-20T01:25:27;-0.40;99.90
52034;DHT22;38045;52.988;6.536;2022-11-20T01:27:53;-0.40;99.90
52034;DHT22;38045;52.988;6.536;2022-11-20T01:30:19;-0.40;99.90
52034;DHT22;38045;52.988;6.536;2022-11-20T01:32:44;-0.40;99.90
52034;DHT22;38045;52.988;6.536;2022-11-20T01:35:10;-0.40;99.90
52034;DHT22;38045;52.988;6.536;2022-11-20T01:37:35;-0.40;99.90
52034;DHT22;38045;52.988;6.536;2022-11-20T01:40:01;-0.40;99.90
52034;DHT22;38045;52.988;6.536;2022-11-20T01:42:27;-0.30;99.90
52034;DHT22;38045;52.988;6.536;2022-11-20T01:45:50;-0.40;99.90
52034;DHT22;38045;52.988;6.536;2022-11-20T01:48:19;-0.30;99.90
52034;DHT22;38045;52.988;6.536;2022-11-20T01:50:47;-0.40;99.90
52034;DHT22;38045;52.988;6.536;2022-11-20T01:53:16;-0.40;99.90
52034;DHT22;38045;52.988;6.536;2022-11-20T01:55:49;-0.50;99.90
52034;DHT22;38045;52.988;6.536;2022-11-20T01:58:16;-0.50;99.90
52034;DHT22;38045;52.988;6.536;2022-11-20T02:00:42;-0.40;99.90
52034;DHT22;38045;52.988;6.536;2022-11-20T02:03:11;-0.40;99.90
52034;DHT22;38045;52.988;6.536;2022-11-20T02:05:43;-0.40;99.90
52034;DHT22;38045;52.988;6.536;2022-11-20T02:08:10;-0.40;99.90
52034;DHT22;38045;52.988;6.536;2022-11-20T02:10:37;-0.40;99.90
52034;DHT22;38045;52.988;6.536;2022-11-20T02:13:03;-0.40;99.90
52034;DHT22;38045;52.988;6.536;2022-11-20T02:15:48;-0.40;99.90
52034;DHT22;38045;52.988;6.536;2022-11-20T02:18:17;-0.40;99.90
52034;DHT22;38045;52.988;6.536;2022-11-20T02:20:44;-0.40;99.90
52034;DHT22;38045;52.988;6.536;2022-11-20T02:23:51;-0.40;99.90
52034;DHT22;38045;52.988;6.536;2022-11-20T02:26:17;-0.40;99.90
52034;DHT22;38045;52.988;6.536;2022-11-20T02:28:43;-0.40;99.90
52034;DHT22;38045;52.988;6.536;2022-11-20T02:31:09;-0.40;99.90
52034;DHT22;38045;52.988;6.536;2022-11-20T02:33:34;-0.40;99.90
52034;DHT22;38045;52.988;6.536;2022-11-20T02:36:00;-0.40;99.90
52034;DHT22;38045;52.988;6.536;2022-11-20T02:38:26;-0.40;99.90
52034;DHT22;38045;52.988;6.536;2022-11-20T02:40:52;-0.40;99.90
52034;DHT22;38045;52.988;6.536;2022-11-20T02:43:17;-0.40;99.90
52034;DHT22;38045;52.988;6.536;2022-11-20T02:45:43;-0.40;99.90
52034;DHT22;38045;52.988;6.536;2022-11-20T02:48:08;-0.40;99.90
52034;DHT22;38045;52.988;6.536;2022-11-20T02:50:37;-0.40;99.90
52034;DHT22;38045;52.988;6.536;2022-11-20T02:53:03;-0.40;99.90
52034;DHT22;38045;52.988;6.536;2022-11-20T02:55:28;-0.40;99.90
52034;DHT22;38045;52.988;6.536;2022-11-20T02:57:54;-0.40;99.90
52034;DHT22;38045;52.988;6.536;2022-11-20T03:00:20;-0.40;99.90
52034;DHT22;38045;52.988;6.536;2022-11-20T03:02:46;-0.40;99.90
52034;DHT22;38045;52.988;6.536;2022-11-20T03:05:11;-0.30;99.90
52034;DHT22;38045;52.988;6.536;2022-11-20T03:07:37;-0.30;99.90
52034;DHT22;38045;52.988;6.536;2022-11-20T03:10:03;-0.30;99.90
52034;DHT22;38045;52.988;6.536;2022-11-20T03:12:29;-0.30;99.90
52034;DHT22;38045;52.988;6.536;2022-11-20T03:14:55;-0.30;99.90
52034;DHT22;38045;52.988;6.536;2022-11-20T03:17:20;-0.30;99.90
52034;DHT22;38045;52.988;6.536;2022-11-20T03:19:46;-0.30;99.90
52034;DHT22;38045;52.988;6.536;2022-11-20T03:22:11;-0.30;99.90
52034;DHT22;38045;52.988;6.536;2022-11-20T03:24:37;-0.30;99.90
52034;DHT22;38045;52.988;6.536;2022-11-20T03:27:02;-0.30;99.90
52034;DHT22;38045;52.988;6.536;2022-11-20T03:29:28;-0.30;99.90
52034;DHT22;38045;52.988;6.536;2022-11-20T03:31:54;-0.20;99.90
52034;DHT22;38045;52.988;6.536;2022-11-20T03:34:19;-0.30;99.90
52034;DHT22;38045;52.988;6.536;2022-11-20T03:36:45;-0.30;99.90
52034;DHT22;38045;52.988;6.536;2022-11-20T03:39:10;-0.30;99.90
52034;DHT22;38045;52.988;6.536;2022-11-20T03:41:39;-0.20;99.90
52034;DHT22;38045;52.988;6.536;2022-11-20T03:44:07;-0.20;99.90
52034;DHT22;38045;52.988;6.536;2022-11-20T03:46:33;-0.20;99.90
52034;DHT22;38045;52.988;6.536;2022-11-20T03:48:59;-0.20;99.90
52034;DHT22;38045;52.988;6.536;2022-11-20T03:51:27;-0.20;99.90
52034;DHT22;38045;52.988;6.536;2022-11-20T03:53:56;-0.10;99.90
52034;DHT22;38045;52.988;6.536;2022-11-20T03:56:24;-0.10;99.90
52034;DHT22;38045;52.988;6.536;2022-11-20T03:58:50;-0.10;99.90
52034;DHT22;38045;52.988;6.536;2022-11-20T04:01:17;-0.10;99.90
52034;DHT22;38045;52.988;6.536;2022-11-20T04:03:44;-0.10;99.90
52034;DHT22;38045;52.988;6.536;2022-11-20T04:06:16;-0.10;99.90
52034;DHT22;38045;52.988;6.536;2022-11-20T04:08:42;-0.10;99.90
52034;DHT22;38045;52.988;6.536;2022-11-20T04:13:37;0.00;99.90
52034;DHT22;38045;52.988;6.536;2022-11-20T04:16:04;0.00;99.90
52034;DHT22;38045;52.988;6.536;2022-11-20T04:18:30;0.10;99.90
52034;DHT22;38045;52.988;6.536;2022-11-20T04:20:57;0.10;99.90
52034;DHT22;38045;52.988;6.536;2022-11-20T04:23:23;0.10;99.90
52034;DHT22;38045;52.988;6.536;2022-11-20T04:25:48;0.10;99.90
52034;DHT22;38045;52.988;6.536;2022-11-20T04:28:14;0.10;99.90
52034;DHT22;38045;52.988;6.536;2022-11-20T04:30:39;0.10;99.90
52034;DHT22;38045;52.988;6.536;2022-11-20T04:33:05;0.00;99.90
52034;DHT22;38045;52.988;6.536;2022-11-20T04:35:34;0.00;99.90
52034;DHT22;38045;52.988;6.536;2022-11-20T04:37:59;0.10;99.90
52034;DHT22;38045;52.988;6.536;2022-11-20T04:40:25;0.10;99.90
52034;DHT22;38045;52.988;6.536;2022-11-20T04:42:51;0.10;99.90
52034;DHT22;38045;52.988;6.536;2022-11-20T04:45:16;0.10;99.90
52034;DHT22;38045;52.988;6.536;2022-11-20T04:47:42;0.10;99.90
52034;DHT22;38045;52.988;6.536;2022-11-20T04:50:08;0.00;99.90
52034;DHT22;38045;52.988;6.536;2022-11-20T04:52:33;0.10;99.90
52034;DHT22;38045;52.988;6.536;2022-11-20T04:54:59;0.00;99.90
52034;DHT22;38045;52.988;6.536;2022-11-20T04:57:25;0.00;99.90
52034;DHT22;38045;52.988;6.536;2022-11-20T04:59:50;-0.10;99.90
52034;DHT22;38045;52.988;6.536;2022-11-20T05:02:16;-0.10;99.90
52034;DHT22;38045;52.988;6.536;2022-11-20T05:04:41;-0.20;99.90
52034;DHT22;38045;52.988;6.536;2022-11-20T05:07:07;-0.20;99.90
52034;DHT22;38045;52.988;6.536;2022-11-20T05:09:32;-0.20;99.90
52034;DHT22;38045;52.988;6.536;2022-11-20T05:11:58;-0.20;99.90
52034;DHT22;38045;52.988;6.536;2022-11-20T05:14:23;-0.20;99.90
52034;DHT22;38045;52.988;6.536;2022-11-20T05:16:49;-0.10;99.90
52034;DHT22;38045;52.988;6.536;2022-11-20T05:19:14;-0.10;99.90
52034;DHT22;38045;52.988;6.536;2022-11-20T05:21:40;-0.10;99.90
52034;DHT22;38045;52.988;6.536;2022-11-20T05:24:06;-0.10;99.90
52034;DHT22;38045;52.988;6.536;2022-11-20T05:26:32;-0.10;99.90
52034;DHT22;38045;52.988;6.536;2022-11-20T05:28:58;-0.10;99.90
52034;DHT22;38045;52.988;6.536;2022-11-20T05:31:24;-0.10;99.90
52034;DHT22;38045;52.988;6.536;2022-11-20T05:33:50;-0.10;99.90
52034;DHT22;38045;52.988;6.536;2022-11-20T05:36:17;-0.10;99.90
52034;DHT22;38045;52.988;6.536;2022-11-20T05:38:43;-0.10;99.90
52034;DHT22;38045;52.988;6.536;2022-11-20T05:41:11;0.00;99.90
52034;DHT22;38045;52.988;6.536;2022-11-20T05:43:39;0.00;99.90
52034;DHT22;38045;52.988;6.536;2022-11-20T05:46:06;0.00;99.90
52034;DHT22;38045;52.988;6.536;2022-11-20T05:48:33;0.00;99.90
52034;DHT22;38045;52.988;6.536;2022-11-20T05:51:00;0.00;99.90
52034;DHT22;38045;52.988;6.536;2022-11-20T05:53:26;0.00;99.90
52034;DHT22;38045;52.988;6.536;2022-11-20T05:55:59;0.00;99.90
52034;DHT22;38045;52.988;6.536;2022-11-20T05:58:29;-0.10;99.90
52034;DHT22;38045;52.988;6.536;2022-11-20T06:01:13;-0.10;99.90
52034;DHT22;38045;52.988;6.536;2022-11-20T06:03:40;-0.10;99.90
52034;DHT22;38045;52.988;6.536;2022-11-20T06:06:07;-0.10;99.90
52034;DHT22;38045;52.988;6.536;2022-11-20T06:08:33;-0.10;99.90
52034;DHT22;38045;52.988;6.536;2022-11-20T06:11:03;-0.20;99.90
52034;DHT22;38045;52.988;6.536;2022-11-20T06:13:29;-0.10;99.90
52034;DHT22;38045;52.988;6.536;2022-11-20T06:15:55;-0.10;99.90
52034;DHT22;38045;52.988;6.536;2022-11-20T06:18:20;-0.10;99.90
52034;DHT22;38045;52.988;6.536;2022-11-20T06:20:46;-0.10;99.90
52034;DHT22;38045;52.988;6.536;2022-11-20T06:23:12;-0.10;99.90
52034;DHT22;38045;52.988;6.536;2022-11-20T06:25:42;-0.10;99.90
52034;DHT22;38045;52.988;6.536;2022-11-20T06:28:08;-0.10;99.90
52034;DHT22;38045;52.988;6.536;2022-11-20T06:30:34;0.00;99.90
52034;DHT22;38045;52.988;6.536;2022-11-20T06:33:00;0.00;99.90
52034;DHT22;38045;52.988;6.536;2022-11-20T06:35:25;0.00;99.90
52034;DHT22;38045;52.988;6.536;2022-11-20T06:37:51;0.00;99.90
52034;DHT22;38045;52.988;6.536;2022-11-20T06:40:17;0.00;99.90
52034;DHT22;38045;52.988;6.536;2022-11-20T06:42:42;0.00;99.90
52034;DHT22;38045;52.988;6.536;2022-11-20T06:45:09;0.00;99.90
52034;DHT22;38045;52.988;6.536;2022-11-20T06:47:34;-0.10;99.90
52034;DHT22;38045;52.988;6.536;2022-11-20T06:50:00;-0.10;99.90
52034;DHT22;38045;52.988;6.536;2022-11-20T06:52:25;-0.10;99.90
52034;DHT22;38045;52.988;6.536;2022-11-20T06:54:51;-0.10;99.90
52034;DHT22;38045;52.988;6.536;2022-11-20T06:57:16;-0.10;99.90
52034;DHT22;38045;52.988;6.536;2022-11-20T06:59:42;0.00;99.90
52034;DHT22;38045;52.988;6.536;2022-11-20T07:02:10;0.00;99.90
52034;DHT22;38045;52.988;6.536;2022-11-20T07:04:37;0.00;99.90
52034;DHT22;38045;52.988;6.536;2022-11-20T07:07:02;-0.10;99.90
52034;DHT22;38045;52.988;6.536;2022-11-20T07:09:28;-0.10;99.90
52034;DHT22;38045;52.988;6.536;2022-11-20T07:11:53;-0.10;99.90
52034;DHT22;38045;52.988;6.536;2022-11-20T07:14:19;-0.10;99.90
52034;DHT22;38045;52.988;6.536;2022-11-20T07:16:45;-0.10;99.90
52034;DHT22;38045;52.988;6.536;2022-11-20T07:19:11;-0.10;99.90
52034;DHT22;38045;52.988;6.536;2022-11-20T07:21:36;-0.20;99.90
52034;DHT22;38045;52.988;6.536;2022-11-20T07:24:02;-0.20;99.90
52034;DHT22;38045;52.988;6.536;2022-11-20T07:26:28;-0.20;99.90
52034;DHT22;38045;52.988;6.536;2022-11-20T07:28:53;-0.20;99.90
52034;DHT22;38045;52.988;6.536;2022-11-20T07:31:19;-0.10;99.90
52034;DHT22;38045;52.988;6.536;2022-11-20T07:33:44;-0.10;99.90
52034;DHT22;38045;52.988;6.536;2022-11-20T07:36:10;0.00;99.90
52034;DHT22;38045;52.988;6.536;2022-11-20T07:38:37;0.00;99.90
52034;DHT22;38045;52.988;6.536;2022-11-20T07:41:03;0.00;99.90
52034;DHT22;38045;52.988;6.536;2022-11-20T07:43:28;0.00;99.90
52034;DHT22;38045;52.988;6.536;2022-11-20T07:46:03;0.00;99.90
52034;DHT22;38045;52.988;6.536;2022-11-20T07:48:29;0.00;99.90
52034;DHT22;38045;52.988;6.536;2022-11-20T07:50:55;0.00;99.90
52034;DHT22;38045;52.988;6.536;2022-11-20T07:53:21;0.00;99.90
52034;DHT22;38045;52.988;6.536;2022-11-20T07:55:47;0.00;99.90
52034;DHT22;38045;52.988;6.536;2022-11-20T07:58:13;0.00;99.90
52034;DHT22;38045;52.988;6.536;2022-11-20T08:00:40;0.00;99.90
52034;DHT22;38045;52.988;6.536;2022-11-20T08:03:06;0.00;99.90
52034;DHT22;38045;52.988;6.536;2022-11-20T08:05:32;0.10;99.90
52034;DHT22;38045;52.988;6.536;2022-11-20T08:07:57;0.10;99.90
52034;DHT22;38045;52.988;6.536;2022-11-20T08:10:23;0.10;99.90
52034;DHT22;38045;52.988;6.536;2022-11-20T08:12:51;0.10;99.90
52034;DHT22;38045;52.988;6.536;2022-11-20T08:15:37;0.10;99.90
52034;DHT22;38045;52.988;6.536;2022-11-20T08:18:11;0.10;99.90
52034;DHT22;38045;52.988;6.536;2022-11-20T08:20:37;0.20;99.90
52034;DHT22;38045;52.988;6.536;2022-11-20T08:23:05;0.20;99.90
52034;DHT22;38045;52.988;6.536;2022-11-20T08:25:31;0.20;99.90
52034;DHT22;38045;52.988;6.536;2022-11-20T08:28:05;0.20;99.90
52034;DHT22;38045;52.988;6.536;2022-11-20T08:30:31;0.30;99.90
52034;DHT22;38045;52.988;6.536;2022-11-20T08:33:02;0.30;99.90
52034;DHT22;38045;52.988;6.536;2022-11-20T08:35:28;0.30;99.90
52034;DHT22;38045;52.988;6.536;2022-11-20T08:37:57;0.30;99.90
52034;DHT22;38045;52.988;6.536;2022-11-20T08:40:23;0.30;99.90
52034;DHT22;38045;52.988;6.536;2022-11-20T08:42:49;0.30;99.90
52034;DHT22;38045;52.988;6.536;2022-11-20T08:45:16;0.40;99.90
52034;DHT22;38045;52.988;6.536;2022-11-20T08:47:42;0.40;99.90
52034;DHT22;38045;52.988;6.536;2022-11-20T08:50:09;0.40;99.90
52034;DHT22;38045;52.988;6.536;2022-11-20T08:52:36;0.40;99.90
52034;DHT22;38045;52.988;6.536;2022-11-20T08:55:03;0.50;99.90
52034;DHT22;38045;52.988;6.536;2022-11-20T08:57:32;0.50;99.90
52034;DHT22;38045;52.988;6.536;2022-11-20T08:59:58;0.50;99.90
52034;DHT22;38045;52.988;6.536;2022-11-20T09:02:24;0.50;99.90
52034;DHT22;38045;52.988;6.536;2022-11-20T09:04:49;0.50;99.90
52034;DHT22;38045;52.988;6.536;2022-11-20T09:07:15;0.60;99.90
52034;DHT22;38045;52.988;6.536;2022-11-20T09:09:41;0.60;99.90
52034;DHT22;38045;52.988;6.536;2022-11-20T09:12:06;0.50;99.90
52034;DHT22;38045;52.988;6.536;2022-11-20T09:14:32;0.50;99.90
52034;DHT22;38045;52.988;6.536;2022-11-20T09:16:57;0.60;99.90
52034;DHT22;38045;52.988;6.536;2022-11-20T09:19:26;0.70;99.90
52034;DHT22;38045;52.988;6.536;2022-11-20T09:21:51;0.70;99.90
52034;DHT22;38045;52.988;6.536;2022-11-20T09:24:18;0.80;99.90
52034;DHT22;38045;52.988;6.536;2022-11-20T09:26:44;0.80;99.90
52034;DHT22;38045;52.988;6.536;2022-11-20T09:29:09;0.80;99.90
52034;DHT22;38045;52.988;6.536;2022-11-20T09:31:35;0.70;99.90
52034;DHT22;38045;52.988;6.536;2022-11-20T09:34:01;0.80;99.90
52034;DHT22;38045;52.988;6.536;2022-11-20T09:36:26;0.70;99.90
52034;DHT22;38045;52.988;6.536;2022-11-20T09:38:52;0.70;99.90
52034;DHT22;38045;52.988;6.536;2022-11-20T09:47:19;0.70;99.90
52034;DHT22;38045;52.988;6.536;2022-11-20T09:50:14;0.80;99.90
52034;DHT22;38045;52.988;6.536;2022-11-20T09:52:54;0.80;99.90
52034;DHT22;38045;52.988;6.536;2022-11-20T09:55:22;0.80;99.90
52034;DHT22;38045;52.988;6.536;2022-11-20T09:57:51;0.80;99.90
52034;DHT22;38045;52.988;6.536;2022-11-20T10:00:16;0.90;99.90
52034;DHT22;38045;52.988;6.536;2022-11-20T10:03:36;1.00;99.90
52034;DHT22;38045;52.988;6.536;2022-11-20T10:05:51;1.00;99.90
52034;DHT22;38045;52.988;6.536;2022-11-20T10:08:29;1.10;99.90
52034;DHT22;38045;52.988;6.536;2022-11-20T10:11:10;1.20;99.90
52034;DHT22;38045;52.988;6.536;2022-11-20T10:19:23;1.30;99.90
52034;DHT22;38045;52.988;6.536;2022-11-20T10:22:20;1.30;99.90
52034;DHT22;38045;52.988;6.536;2022-11-20T10:24:55;1.30;99.90
52034;DHT22;38045;52.988;6.536;2022-11-20T10:30:19;1.50;99.90
52034;DHT22;38045;52.988;6.536;2022-11-20T10:32:50;1.60;99.90
52034;DHT22;38045;52.988;6.536;2022-11-20T10:35:36;1.70;99.90
52034;DHT22;38045;52.988;6.536;2022-11-20T10:38:12;1.80;99.90
52034;DHT22;38045;52.988;6.536;2022-11-20T10:40:45;1.90;99.90
52034;DHT22;38045;52.988;6.536;2022-11-20T10:43:32;1.90;99.90
52034;DHT22;38045;52.988;6.536;2022-11-20T10:46:02;1.90;99.90
52034;DHT22;38045;52.988;6.536;2022-11-20T10:48:31;1.90;99.90
52034;DHT22;38045;52.988;6.536;2022-11-20T10:56:44;2.00;99.90
52034;DHT22;38045;52.988;6.536;2022-11-20T11:02:23;2.10;99.90
52034;DHT22;38045;52.988;6.536;2022-11-20T11:04:51;2.10;99.90
52034;DHT22;38045;52.988;6.536;2022-11-20T11:07:27;2.20;99.90
52034;DHT22;38045;52.988;6.536;2022-11-20T11:09:55;2.20;99.90
52034;DHT22;38045;52.988;6.536;2022-11-20T11:12:27;2.20;99.90
52034;DHT22;38045;52.988;6.536;2022-11-20T11:14:54;2.30;99.90
52034;DHT22;38045;52.988;6.536;2022-11-20T11:17:32;2.30;99.90
52034;DHT22;38045;52.988;6.536;2022-11-20T11:20:24;2.30;99.90
52034;DHT22;38045;52.988;6.536;2022-11-20T11:22:51;2.40;99.90
52034;DHT22;38045;52.988;6.536;2022-11-20T11:25:25;2.40;99.90
52034;DHT22;38045;52.988;6.536;2022-11-20T11:27:52;2.40;99.90
52034;DHT22;38045;52.988;6.536;2022-11-20T11:30:19;2.40;99.90
52034;DHT22;38045;52.988;6.536;2022-11-20T11:32:45;2.40;99.90
52034;DHT22;38045;52.988;6.536;2022-11-20T11:35:26;2.50;99.90
52034;DHT22;38045;52.988;6.536;2022-11-20T11:37:54;2.50;99.90
52034;DHT22;38045;52.988;6.536;2022-11-20T11:40:21;2.40;99.90
52034;DHT22;38045;52.988;6.536;2022-11-20T11:42:52;2.50;99.90
52034;DHT22;38045;52.988;6.536;2022-11-20T11:45:19;2.50;99.90
52034;DHT22;38045;52.988;6.536;2022-11-20T11:47:47;2.50;99.90
52034;DHT22;38045;52.988;6.536;2022-11-20T11:50:24;2.50;99.90
52034;DHT22;38045;52.988;6.536;2022-11-20T11:55:42;2.60;99.90
52034;DHT22;38045;52.988;6.536;2022-11-20T12:03:38;3.00;99.90
52034;DHT22;38045;52.988;6.536;2022-11-20T12:06:12;3.10;99.90
52034;DHT22;38045;52.988;6.536;2022-11-20T12:08:51;3.20;99.90
52034;DHT22;38045;52.988;6.536;2022-11-20T12:11:28;3.40;99.90
52034;DHT22;38045;52.988;6.536;2022-11-20T12:13:58;3.50;99.90
52034;DHT22;38045;52.988;6.536;2022-11-20T12:16:32;3.70;99.90
52034;DHT22;38045;52.988;6.536;2022-11-20T12:19:00;3.80;99.90
52034;DHT22;38045;52.988;6.536;2022-11-20T12:24:47;4.00;99.90
52034;DHT22;38045;52.988;6.536;2022-11-20T12:27:43;4.00;99.90
52034;DHT22;38045;52.988;6.536;2022-11-20T12:30:20;4.00;99.90
52034;DHT22;38045;52.988;6.536;2022-11-20T12:47:36;3.80;99.90
52034;DHT22;38045;52.988;6.536;2022-11-20T12:51:07;4.00;99.90
52034;DHT22;38045;52.988;6.536;2022-11-20T12:53:27;4.40;99.90
52034;DHT22;38045;52.988;6.536;2022-11-20T13:01:46;5.50;99.90
52034;DHT22;38045;52.988;6.536;2022-11-20T13:06:50;5.20;99.90
52034;DHT22;38045;52.988;6.536;2022-11-20T13:09:18;4.80;99.90
52034;DHT22;38045;52.988;6.536;2022-11-20T13:11:53;4.60;99.90
52034;DHT22;38045;52.988;6.536;2022-11-20T13:19:54;4.00;99.90
52034;DHT22;38045;52.988;6.536;2022-11-20T13:22:27;4.00;99.90
52034;DHT22;38045;52.988;6.536;2022-11-20T13:24:54;4.00;99.90
52034;DHT22;38045;52.988;6.536;2022-11-20T13:27:23;4.00;99.90
52034;DHT22;38045;52.988;6.536;2022-11-20T13:30:13;3.90;99.90
52034;DHT22;38045;52.988;6.536;2022-11-20T13:35:33;3.80;99.90
52034;DHT22;38045;52.988;6.536;2022-11-20T13:38:10;3.80;99.90
52034;DHT22;38045;52.988;6.536;2022-11-20T13:40:39;3.70;99.90
52034;DHT22;38045;52.988;6.536;2022-11-20T13:45:41;3.50;99.90
52034;DHT22;38045;52.988;6.536;2022-11-20T13:48:21;3.50;99.90
52034;DHT22;38045;52.988;6.536;2022-11-20T13:51:07;3.40;99.90
52034;DHT22;38045;52.988;6.536;2022-11-20T13:53:59;3.30;99.90
52034;DHT22;38045;52.988;6.536;2022-11-20T13:56:54;3.30;99.90
52034;DHT22;38045;52.988;6.536;2022-11-20T14:02:19;3.10;99.90
52034;DHT22;38045;52.988;6.536;2022-11-20T14:04:48;3.10;99.90
52034;DHT22;38045;52.988;6.536;2022-11-20T14:07:15;3.10;99.90
52034;DHT22;38045;52.988;6.536;2022-11-20T14:09:52;3.00;99.90
52034;DHT22;38045;52.988;6.536;2022-11-20T14:12:21;3.00;99.90
52034;DHT22;38045;52.988;6.536;2022-11-20T14:14:52;3.00;99.90
52034;DHT22;38045;52.988;6.536;2022-11-20T14:17:33;2.90;99.90
52034;DHT22;38045;52.988;6.536;2022-11-20T14:20:06;2.80;99.90
52034;DHT22;38045;52.988;6.536;2022-11-20T14:22:37;2.80;99.90
52034;DHT22;38045;52.988;6.536;2022-11-20T14:27:39;2.90;99.90
52034;DHT22;38045;52.988;6.536;2022-11-20T14:30:16;2.90;99.90
52034;DHT22;38045;52.988;6.536;2022-11-20T14:32:44;2.90;99.90
52034;DHT22;38045;52.988;6.536;2022-11-20T14:35:21;2.80;99.90
52034;DHT22;38045;52.988;6.536;2022-11-20T14:37:48;2.70;99.90
52034;DHT22;38045;52.988;6.536;2022-11-20T14:40:27;2.60;99.90
52034;DHT22;38045;52.988;6.536;2022-11-20T14:42:54;2.60;99.90
52034;DHT22;38045;52.988;6.536;2022-11-20T14:45:20;2.60;99.90
52034;DHT22;38045;52.988;6.536;2022-11-20T14:47:47;2.50;99.90
52034;DHT22;38045;52.988;6.536;2022-11-20T14:50:26;2.50;99.90
52034;DHT22;38045;52.988;6.536;2022-11-20T14:53:00;2.50;99.90
52034;DHT22;38045;52.988;6.536;2022-11-20T14:55:35;2.50;99.90
52034;DHT22;38045;52.988;6.536;2022-11-20T14:58:22;2.40;99.90
52034;DHT22;38045;52.988;6.536;2022-11-20T15:00:56;2.30;99.90
52034;DHT22;38045;52.988;6.536;2022-11-20T15:03:22;2.30;99.90
52034;DHT22;38045;52.988;6.536;2022-11-20T15:05:49;2.30;99.90
52034;DHT22;38045;52.988;6.536;2022-11-20T15:08:16;2.30;99.90
52034;DHT22;38045;52.988;6.536;2022-11-20T15:10:51;2.30;99.90
52034;DHT22;38045;52.988;6.536;2022-11-20T15:13:32;2.30;99.90
52034;DHT22;38045;52.988;6.536;2022-11-20T15:16:03;2.20;99.90
52034;DHT22;38045;52.988;6.536;2022-11-20T15:18:38;2.20;99.90
52034;DHT22;38045;52.988;6.536;2022-11-20T15:21:11;2.20;99.90
52034;DHT22;38045;52.988;6.536;2022-11-20T15:23:37;2.20;99.90
52034;DHT22;38045;52.988;6.536;2022-11-20T15:26:05;2.10;99.90
52034;DHT22;38045;52.988;6.536;2022-11-20T15:28:33;2.10;99.90
52034;DHT22;38045;52.988;6.536;2022-11-20T15:31:00;2.10;99.90
52034;DHT22;38045;52.988;6.536;2022-11-20T15:33:29;2.00;99.90
52034;DHT22;38045;52.988;6.536;2022-11-20T15:35:55;2.00;99.90
52034;DHT22;38045;52.988;6.536;2022-11-20T15:38:21;2.00;99.90
52034;DHT22;38045;52.988;6.536;2022-11-20T15:40:46;2.00;99.90
52034;DHT22;38045;52.988;6.536;2022-11-20T15:43:12;1.90;99.90
52034;DHT22;38045;52.988;6.536;2022-11-20T15:45:43;2.00;99.90
52034;DHT22;38045;52.988;6.536;2022-11-20T15:48:31;2.00;99.90
52034;DHT22;38045;52.988;6.536;2022-11-20T15:53:35;2.10;99.90
52034;DHT22;38045;52.988;6.536;2022-11-20T15:56:01;2.10;99.90
52034;DHT22;38045;52.988;6.536;2022-11-20T15:58:27;2.10;99.90
52034;DHT22;38045;52.988;6.536;2022-11-20T16:00:53;2.00;99.90
52034;DHT22;38045;52.988;6.536;2022-11-20T16:03:19;2.00;99.90
52034;DHT22;38045;52.988;6.536;2022-11-20T16:05:45;2.00;99.90
52034;DHT22;38045;52.988;6.536;2022-11-20T16:08:11;2.00;99.90
52034;DHT22;38045;52.988;6.536;2022-11-20T16:10:36;2.00;99.90
52034;DHT22;38045;52.988;6.536;2022-11-20T16:13:03;1.90;99.90
52034;DHT22;38045;52.988;6.536;2022-11-20T16:15:52;1.90;99.90
52034;DHT22;38045;52.988;6.536;2022-11-20T16:18:20;1.90;99.90
52034;DHT22;38045;52.988;6.536;2022-11-20T16:20:47;1.90;99.90
52034;DHT22;38045;52.988;6.536;2022-11-20T16:23:14;1.90;99.90
52034;DHT22;38045;52.988;6.536;2022-11-20T16:25:41;1.90;99.90
52034;DHT22;38045;52.988;6.536;2022-11-20T16:28:07;1.90;99.90
52034;DHT22;38045;52.988;6.536;2022-11-20T16:30:33;1.80;99.90
52034;DHT22;38045;52.988;6.536;2022-11-20T16:32:59;1.80;99.90
52034;DHT22;38045;52.988;6.536;2022-11-20T16:35:29;1.80;99.90
52034;DHT22;38045;52.988;6.536;2022-11-20T16:37:55;1.80;99.90
52034;DHT22;38045;52.988;6.536;2022-11-20T16:40:22;1.80;99.90
52034;DHT22;38045;52.988;6.536;2022-11-20T16:42:47;1.70;99.90
52034;DHT22;38045;52.988;6.536;2022-11-20T16:45:13;1.70;99.90
52034;DHT22;38045;52.988;6.536;2022-11-20T16:47:39;1.70;99.90
52034;DHT22;38045;52.988;6.536;2022-11-20T16:50:05;1.70;99.90
52034;DHT22;38045;52.988;6.536;2022-11-20T16:52:31;1.70;99.90
52034;DHT22;38045;52.988;6.536;2022-11-20T16:54:57;1.70;99.90
52034;DHT22;38045;52.988;6.536;2022-11-20T16:57:23;1.70;99.90
52034;DHT22;38045;52.988;6.536;2022-11-20T16:59:49;1.70;99.90
52034;DHT22;38045;52.988;6.536;2022-11-20T17:02:15;1.70;99.90
52034;DHT22;38045;52.988;6.536;2022-11-20T17:04:40;1.70;99.90
52034;DHT22;38045;52.988;6.536;2022-11-20T17:07:07;1.70;99.90
52034;DHT22;38045;52.988;6.536;2022-11-20T17:09:32;1.70;99.90
52034;DHT22;38045;52.988;6.536;2022-11-20T17:11:58;1.70;99.90
52034;DHT22;38045;52.988;6.536;2022-11-20T17:14:24;1.70;99.90